createdAt,value
2022-11-20T00:01:41.132Z,95.95
2022-11-20T00:04:09.191Z,95.77
2022-11-20T00:06:36.146Z,95.66
2022-11-20T00:09:03.236Z,95.67
2022-11-20T00:11:30.829Z,95.53
2022-11-20T00:13:58.347Z,95.72
2022-11-20T00:16:26.062Z,95.69
2022-11-20T00:18:53.086Z,95.58
2022-11-20T00:21:21.947Z,95.43
2022-11-20T00:23:49.482Z,95.28
2022-11-20T00:26:18.148Z,95.07
2022-11-20T00:28:45.604Z,95.00
2022-11-20T00:31:13.502Z,95.01
2022-11-20T00:33:40.374Z,94.80
2022-11-20T00:36:08.389Z,94.82
2022-11-20T00:38:35.461Z,94.82
2022-11-20T00:41:03.153Z,94.79
2022-11-20T00:43:30.138Z,94.69
2022-11-20T00:45:58.101Z,94.74
2022-11-20T00:48:25.021Z,94.89
2022-11-20T00:50:52.016Z,94.81
2022-11-20T00:53:18.946Z,94.57
2022-11-20T00:56:06.027Z,94.78
2022-11-20T00:58:37.443Z,94.99
2022-11-20T01:01:05.506Z,94.95
2022-11-20T01:03:33.357Z,95.20
2022-11-20T01:06:11.335Z,95.20
2022-11-20T01:08:38.387Z,95.29
2022-11-20T01:11:08.923Z,95.37
2022-11-20T01:13:38.718Z,95.33
2022-11-20T01:16:10.324Z,95.56
2022-11-20T01:18:37.863Z,95.30
2022-11-20T01:21:05.997Z,95.29
2022-11-20T01:23:33.599Z,95.24
2022-11-20T01:26:01.433Z,95.36
2022-11-20T01:28:28.329Z,95.38
2022-11-20T01:30:55.125Z,95.40
2022-11-20T01:33:22.096Z,95.31
2022-11-20T01:35:49.043Z,95.36
2022-11-20T01:38:18.889Z,95.20
2022-11-20T01:40:45.916Z,95.22
2022-11-20T01:43:26.702Z,95.04
2022-11-20T01:46:01.214Z,94.94
2022-11-20T01:48:30.455Z,95.21
2022-11-20T01:50:57.346Z,95.15
2022-11-20T01:53:26.311Z,95.20
2022-11-20T01:55:54.119Z,95.07
2022-11-20T01:58:21.751Z,95.18
2022-11-20T02:00:48.631Z,95.14
2022-11-20T02:03:17.009Z,95.09
2022-11-20T02:05:55.207Z,94.92
2022-11-20T02:08:22.122Z,94.88
2022-11-20T02:10:48.932Z,94.97
2022-11-20T02:13:34.821Z,95.19
2022-11-20T02:16:02.211Z,94.97
2022-11-20T02:18:28.995Z,94.82
2022-11-20T02:20:57.866Z,94.94
2022-11-20T02:23:27.817Z,94.96
2022-11-20T02:25:54.570Z,94.76
2022-11-20T02:28:21.553Z,94.48
2022-11-20T02:30:48.449Z,94.46
2022-11-20T02:33:15.317Z,94.21
2022-11-20T02:35:44.945Z,93.82
2022-11-20T02:38:11.666Z,93.88
2022-11-20T02:40:38.452Z,93.60
2022-11-20T02:43:05.406Z,93.76
2022-11-20T02:45:32.760Z,93.75
2022-11-20T02:47:59.597Z,93.61
2022-11-20T02:50:26.515Z,93.38
2022-11-20T02:52:53.358Z,93.36
2022-11-20T02:55:20.126Z,93.43
2022-11-20T02:57:46.999Z,93.19
2022-11-20T03:00:14.101Z,93.42
2022-11-20T03:02:40.867Z,93.13
2022-11-20T03:05:07.954Z,93.04
2022-11-20T03:07:34.956Z,93.16
2022-11-20T03:10:01.849Z,92.79
2022-11-20T03:12:29.790Z,92.78
2022-11-20T03:14:56.552Z,93.05
2022-11-20T03:17:23.831Z,92.93
2022-11-20T03:19:50.814Z,92.82
2022-11-20T03:22:17.542Z,93.01
2022-11-20T03:24:44.290Z,92.87
2022-11-20T03:27:11.971Z,93.02
2022-11-20T03:29:39.137Z,92.97
2022-11-20T03:32:06.091Z,92.50
2022-11-20T03:34:33.075Z,92.72
2022-11-20T03:36:59.886Z,92.69
2022-11-20T03:39:27.578Z,92.67
2022-11-20T03:41:54.674Z,92.59
2022-11-20T03:44:22.274Z,92.55
2022-11-20T03:46:49.033Z,92.60
2022-11-20T03:49:15.972Z,92.65
2022-11-20T03:51:44.531Z,92.56
2022-11-20T03:54:11.390Z,92.66
2022-11-20T03:56:38.830Z,92.70
2022-11-20T03:59:05.728Z,92.89
2022-11-20T04:01:33.531Z,92.98
2022-11-20T04:04:01.481Z,93.00
2022-11-20T04:06:29.570Z,92.98
2022-11-20T04:08:56.944Z,92.72
2022-11-20T04:11:25.062Z,92.93
2022-11-20T04:13:56.025Z,92.71
2022-11-20T04:16:23.757Z,92.63
2022-11-20T04:18:54.529Z,92.50
2022-11-20T04:21:21.523Z,92.69
2022-11-20T04:23:48.959Z,92.74
2022-11-20T04:26:15.780Z,92.74
2022-11-20T04:28:43.336Z,92.76
2022-11-20T04:31:11.603Z,92.46
2022-11-20T04:33:38.541Z,92.75
2022-11-20T04:36:11.219Z,92.58
2022-11-20T04:38:38.133Z,92.46
2022-11-20T04:41:06.145Z,92.48
2022-11-20T04:43:33.314Z,92.39
2022-11-20T04:46:00.202Z,92.57
2022-11-20T04:48:27.609Z,92.30
2022-11-20T04:50:54.509Z,92.30
2022-11-20T04:53:21.519Z,92.49
2022-11-20T04:55:48.524Z,92.63
2022-11-20T04:58:15.419Z,92.58
2022-11-20T05:00:44.930Z,92.68
2022-11-20T05:03:12.111Z,92.30
2022-11-20T05:05:46.530Z,92.26
2022-11-20T05:08:13.492Z,92.25
2022-11-20T05:10:40.428Z,92.08
2022-11-20T05:13:07.286Z,91.66
2022-11-20T05:15:34.207Z,91.84
2022-11-20T05:18:01.210Z,91.73
2022-11-20T05:20:28.060Z,91.76
2022-11-20T05:22:58.511Z,91.87
2022-11-20T05:25:32.767Z,91.60
2022-11-20T05:28:00.995Z,91.71
2022-11-20T05:30:27.841Z,91.81
2022-11-20T05:32:55.125Z,91.49
2022-11-20T05:35:22.133Z,91.31
2022-11-20T05:37:57.355Z,91.56
2022-11-20T05:40:24.221Z,91.61
2022-11-20T05:42:51.238Z,91.67
2022-11-20T05:45:19.350Z,91.52
2022-11-20T05:47:46.441Z,91.52
2022-11-20T05:50:14.551Z,91.38
2022-11-20T05:52:41.670Z,91.64
2022-11-20T05:55:08.683Z,91.10
2022-11-20T05:57:35.544Z,91.09
2022-11-20T06:00:05.730Z,91.13
2022-11-20T06:02:35.521Z,91.08
2022-11-20T06:05:04.968Z,91.13
2022-11-20T06:07:31.908Z,91.07
2022-11-20T06:09:58.825Z,91.06
2022-11-20T06:12:25.802Z,90.88
2022-11-20T06:14:52.733Z,90.92
2022-11-20T06:17:22.211Z,90.31
2022-11-20T06:19:49.157Z,90.23
2022-11-20T06:22:16.122Z,90.38
2022-11-20T06:24:42.935Z,90.40
2022-11-20T06:27:09.896Z,90.16
2022-11-20T06:29:38.276Z,90.13
2022-11-20T06:32:05.423Z,90.22
2022-11-20T06:34:35.766Z,90.27
2022-11-20T06:39:46.390Z,90.09
2022-11-20T06:42:13.449Z,89.87
2022-11-20T06:44:40.252Z,89.59
2022-11-20T06:47:07.227Z,89.54
2022-11-20T06:49:35.519Z,89.57
2022-11-20T06:52:02.657Z,89.60
2022-11-20T06:54:29.622Z,89.49
2022-11-20T06:56:56.641Z,89.43
2022-11-20T06:59:24.162Z,89.14
2022-11-20T07:01:54.160Z,89.16
2022-11-20T07:04:21.093Z,88.93
2022-11-20T07:06:47.993Z,89.09
2022-11-20T07:09:14.851Z,89.01
2022-11-20T07:11:43.493Z,88.87
2022-11-20T07:14:10.439Z,89.01
2022-11-20T07:16:37.365Z,88.89
2022-11-20T07:19:04.266Z,88.78
2022-11-20T07:21:31.274Z,88.72
2022-11-20T07:24:02.941Z,88.71
2022-11-20T07:26:39.286Z,88.75
2022-11-20T07:29:06.624Z,88.38
2022-11-20T07:31:35.447Z,88.44
2022-11-20T07:34:02.437Z,88.41
2022-11-20T07:36:34.240Z,88.38
2022-11-20T07:39:01.414Z,88.39
2022-11-20T07:41:28.856Z,88.25
2022-11-20T07:43:55.780Z,88.07
2022-11-20T07:46:25.180Z,88.27
2022-11-20T07:48:54.866Z,88.28
2022-11-20T07:51:27.018Z,87.94
2022-11-20T07:54:04.381Z,87.91
2022-11-20T07:56:31.538Z,87.82
2022-11-20T07:58:58.466Z,87.85
2022-11-20T08:01:25.517Z,87.80
2022-11-20T08:03:55.160Z,87.73
2022-11-20T08:06:26.957Z,87.71
2022-11-20T08:08:53.809Z,87.51
2022-11-20T08:11:39.449Z,87.44
2022-11-20T08:14:16.488Z,87.31
2022-11-20T08:16:46.413Z,87.25
2022-11-20T08:19:15.660Z,87.48
2022-11-20T08:21:42.696Z,87.20
2022-11-20T08:24:24.825Z,87.38
2022-11-20T08:27:00.825Z,87.44
2022-11-20T08:29:30.461Z,87.12
2022-11-20T08:31:57.332Z,87.44
2022-11-20T08:34:24.457Z,87.13
2022-11-20T08:36:51.643Z,86.88
2022-11-20T08:39:18.605Z,86.92
2022-11-20T08:41:45.591Z,86.82
2022-11-20T08:44:12.592Z,86.81
2022-11-20T08:47:11.494Z,87.06
2022-11-20T08:49:36.616Z,86.91
2022-11-20T08:52:03.605Z,86.67
2022-11-20T08:54:30.504Z,86.91
2022-11-20T08:56:57.598Z,87.02
2022-11-20T08:59:50.737Z,87.38
2022-11-20T09:02:14.843Z,87.55
2022-11-20T09:04:41.879Z,87.84
2022-11-20T09:07:08.892Z,87.82
2022-11-20T09:09:35.945Z,87.56
2022-11-20T09:12:03.016Z,87.86
2022-11-20T09:14:31.207Z,88.21
2022-11-20T09:16:58.121Z,88.51
2022-11-20T09:19:41.091Z,88.89
2022-11-20T09:22:08.292Z,89.11
2022-11-20T09:24:35.265Z,89.51
2022-11-20T09:27:05.684Z,89.93
2022-11-20T09:29:33.391Z,90.11
2022-11-20T09:32:00.455Z,90.54
2022-11-20T09:34:27.363Z,90.83
2022-11-20T09:37:03.181Z,90.96
2022-11-20T09:39:34.137Z,91.19
2022-11-20T09:42:07.243Z,90.98
2022-11-20T09:44:34.174Z,91.09
2022-11-20T09:47:01.255Z,91.30
2022-11-20T09:49:32.816Z,91.41
2022-11-20T09:54:42.665Z,91.07
2022-11-20T09:57:13.508Z,90.94
2022-11-20T09:59:41.492Z,90.90
2022-11-20T10:02:23.578Z,90.88
2022-11-20T10:05:09.331Z,90.59
2022-11-20T10:07:40.789Z,90.53
2022-11-20T10:10:15.139Z,90.50
2022-11-20T10:13:00.879Z,90.76
2022-11-20T10:15:45.876Z,91.03
2022-11-20T10:18:19.790Z,91.20
2022-11-20T10:20:46.543Z,91.37
2022-11-20T10:23:26.209Z,91.76
2022-11-20T10:26:03.879Z,92.00
2022-11-20T10:28:36.936Z,92.21
2022-11-20T10:31:04.548Z,92.46
2022-11-20T10:33:50.056Z,92.73
2022-11-20T10:36:24.641Z,92.57
2022-11-20T10:38:54.094Z,92.55
2022-11-20T10:41:30.889Z,92.22
2022-11-20T10:44:07.101Z,91.88
2022-11-20T10:46:38.722Z,91.53
2022-11-20T10:49:06.625Z,91.04
2022-11-20T10:51:33.566Z,90.63
2022-11-20T10:54:21.471Z,89.70
2022-11-20T10:56:50.566Z,88.83
2022-11-20T10:59:29.609Z,88.05
2022-11-20T11:01:56.426Z,87.84
2022-11-20T11:04:26.031Z,87.60
2022-11-20T11:06:53.848Z,86.73
2022-11-20T11:09:22.079Z,86.43
2022-11-20T11:11:49.031Z,85.85
2022-11-20T11:14:16.559Z,86.08
2022-11-20T11:16:55.213Z,85.34
2022-11-20T11:19:22.785Z,85.57
2022-11-20T11:21:57.649Z,85.07
2022-11-20T11:24:43.038Z,85.04
2022-11-20T11:27:17.125Z,84.47
2022-11-20T11:29:44.932Z,84.10
2022-11-20T11:32:24.270Z,83.82
2022-11-20T11:35:04.446Z,83.70
2022-11-20T11:37:38.164Z,83.99
2022-11-20T11:42:56.590Z,83.83
2022-11-20T11:45:23.976Z,84.00
2022-11-20T11:47:50.997Z,83.95
2022-11-20T11:50:28.600Z,83.71
2022-11-20T11:52:58.430Z,83.57
2022-11-20T11:55:30.797Z,83.51
2022-11-20T11:58:23.987Z,83.48
2022-11-20T12:01:09.034Z,82.82
2022-11-20T12:03:39.818Z,83.10
2022-11-20T12:06:15.645Z,82.88
2022-11-20T12:08:53.089Z,82.97
2022-11-20T12:11:32.423Z,82.89
2022-11-20T12:14:02.963Z,82.98
2022-11-20T12:16:30.418Z,83.16
2022-11-20T12:18:58.463Z,83.33
2022-11-20T12:21:37.728Z,83.89
2022-11-20T12:24:32.783Z,83.67
2022-11-20T12:26:59.906Z,83.90
2022-11-20T12:29:34.325Z,84.34
2022-11-20T12:32:01.176Z,84.52
2022-11-20T12:34:34.234Z,84.63
2022-11-20T12:37:08.165Z,84.59
2022-11-20T12:39:36.060Z,84.79
2022-11-20T12:42:24.820Z,84.60
2022-11-20T12:45:10.439Z,84.34
2022-11-20T12:47:49.578Z,84.53
2022-11-20T12:50:19.663Z,84.46
2022-11-20T12:52:53.744Z,84.28
2022-11-20T12:55:44.900Z,84.43
2022-11-20T12:58:27.983Z,84.83
2022-11-20T13:01:01.702Z,84.66
2022-11-20T13:03:58.418Z,84.45
2022-11-20T13:06:25.284Z,84.61
2022-11-20T13:08:55.879Z,84.62
2022-11-20T13:11:28.872Z,84.14
2022-11-20T13:14:15.584Z,84.39
2022-11-20T13:16:47.317Z,84.75
2022-11-20T13:19:15.140Z,84.76
2022-11-20T13:21:47.550Z,84.48
2022-11-20T13:24:25.698Z,84.27
2022-11-20T13:27:11.424Z,84.30
2022-11-20T13:29:41.259Z,84.37
2022-11-20T13:32:15.125Z,84.74
2022-11-20T13:34:53.852Z,84.71
2022-11-20T13:37:26.861Z,84.80
2022-11-20T13:39:53.934Z,85.20
2022-11-20T13:42:22.049Z,84.96
2022-11-20T13:44:52.395Z,84.88
2022-11-20T13:47:31.903Z,84.81
2022-11-20T13:49:59.894Z,84.67
2022-11-20T13:52:33.546Z,85.00
2022-11-20T13:55:22.241Z,85.02
2022-11-20T13:57:58.002Z,84.88
2022-11-20T14:00:25.958Z,84.93
2022-11-20T14:03:14.572Z,85.13
2022-11-20T14:05:52.499Z,85.42
2022-11-20T14:08:26.881Z,85.38
2022-11-20T14:11:03.394Z,85.11
2022-11-20T14:13:30.519Z,85.12
2022-11-20T14:16:00.636Z,85.11
2022-11-20T14:18:28.423Z,85.00
2022-11-20T14:20:55.348Z,85.00
2022-11-20T14:23:29.727Z,84.75
2022-11-20T14:25:57.268Z,85.20
2022-11-20T14:28:28.996Z,85.23
2022-11-20T14:30:56.674Z,85.01
2022-11-20T14:33:26.357Z,85.24
2022-11-20T14:35:57.359Z,85.24
2022-11-20T14:38:28.506Z,85.38
2022-11-20T14:40:57.713Z,85.29
2022-11-20T14:43:28.462Z,85.07
2022-11-20T14:46:03.342Z,85.06
2022-11-20T14:48:40.590Z,85.30
2022-11-20T14:51:12.260Z,85.08
2022-11-20T14:53:39.160Z,84.95
2022-11-20T14:56:06.041Z,85.02
2022-11-20T14:58:36.034Z,85.29
2022-11-20T15:01:03.081Z,85.13
2022-11-20T15:03:34.121Z,85.11
2022-11-20T15:06:01.432Z,85.07
2022-11-20T15:08:28.380Z,85.00
2022-11-20T15:10:55.432Z,85.03
2022-11-20T15:13:36.136Z,85.36
2022-11-20T15:16:03.484Z,85.44
2022-11-20T15:18:42.818Z,85.23
2022-11-20T15:21:16.595Z,85.23
2022-11-20T15:23:46.636Z,85.45
2022-11-20T15:26:35.026Z,85.22
2022-11-20T15:29:02.495Z,85.05
2022-11-20T15:31:30.123Z,85.04
2022-11-20T15:33:57.115Z,85.51
2022-11-20T15:36:24.127Z,85.38
2022-11-20T15:41:32.314Z,85.17
2022-11-20T15:43:59.310Z,85.15
2022-11-20T15:46:38.885Z,85.22
2022-11-20T15:49:09.857Z,85.63
2022-11-20T15:51:37.624Z,85.62
2022-11-20T15:54:11.321Z,85.44
2022-11-20T15:56:38.614Z,85.47
2022-11-20T15:59:05.631Z,85.11
2022-11-20T16:01:33.285Z,84.69
2022-11-20T16:04:03.989Z,84.83
2022-11-20T16:06:31.033Z,84.84
2022-11-20T16:08:58.165Z,85.11
2022-11-20T16:11:25.114Z,85.26
2022-11-20T16:14:10.703Z,85.86
2022-11-20T16:16:42.698Z,86.17
2022-11-20T16:22:26.564Z,86.30
2022-11-20T16:25:18.647Z,86.11
2022-11-20T16:27:45.751Z,86.07
2022-11-20T16:30:16.036Z,86.22
2022-11-20T16:32:58.546Z,85.99
2022-11-20T16:35:29.588Z,86.01
2022-11-20T16:37:56.714Z,85.62
2022-11-20T16:40:23.781Z,85.56
2022-11-20T16:42:50.852Z,85.82
2022-11-20T16:45:24.680Z,85.54
2022-11-20T16:48:05.184Z,85.93
2022-11-20T16:50:34.224Z,85.74
2022-11-20T16:53:01.095Z,85.99
2022-11-20T16:55:28.021Z,85.91
2022-11-20T16:57:55.272Z,85.97
2022-11-20T17:00:31.851Z,85.78
2022-11-20T17:02:59.943Z,85.75
2022-11-20T17:05:30.463Z,85.73
2022-11-20T17:07:59.807Z,85.81
2022-11-20T17:10:31.836Z,85.94
2022-11-20T17:12:58.858Z,86.33
2022-11-20T17:15:26.098Z,86.56
2022-11-20T17:17:57.959Z,86.63
2022-11-20T17:20:28.459Z,86.67
2022-11-20T17:22:58.787Z,86.55
2022-11-20T17:25:35.505Z,85.90
2022-11-20T17:28:18.880Z,85.84
2022-11-20T17:30:51.077Z,85.86
2022-11-20T17:33:20.845Z,85.99
2022-11-20T17:35:50.715Z,85.64
2022-11-20T17:38:19.859Z,85.57
2022-11-20T17:40:46.911Z,85.19
2022-11-20T17:43:16.409Z,85.43
2022-11-20T17:48:45.085Z,85.37
2022-11-20T17:51:14.595Z,85.44
2022-11-20T17:53:43.793Z,85.45
2022-11-20T17:59:21.787Z,85.50
2022-11-20T18:01:48.949Z,85.41
2022-11-20T18:04:22.253Z,84.96
2022-11-20T18:06:58.870Z,84.72
2022-11-20T18:15:23.589Z,84.25
2022-11-20T18:17:50.574Z,84.42
2022-11-20T18:20:38.379Z,84.76
2022-11-20T18:23:06.850Z,84.61
2022-11-20T18:25:33.942Z,84.69
2022-11-20T18:28:03.045Z,84.73
2022-11-20T18:30:32.851Z,84.80
2022-11-20T18:32:59.945Z,84.57
2022-11-20T18:35:27.019Z,84.50
2022-11-20T18:37:56.941Z,84.57
2022-11-20T18:40:23.787Z,84.77
2022-11-20T18:43:13.689Z,84.65
2022-11-20T18:45:43.359Z,84.67
2022-11-20T18:48:13.807Z,84.57
2022-11-20T18:51:11.338Z,84.39
2022-11-20T18:53:59.397Z,84.52
2022-11-20T18:56:26.475Z,84.39
2022-11-20T18:58:54.701Z,84.45
2022-11-20T19:01:25.170Z,84.61
2022-11-20T19:03:52.231Z,84.49
2022-11-20T19:06:19.197Z,84.38
2022-11-20T19:08:46.047Z,84.50
2022-11-20T19:11:13.271Z,84.46
2022-11-20T19:13:44.096Z,84.49
2022-11-20T19:16:18.073Z,84.46
2022-11-20T19:21:19.558Z,84.67
2022-11-20T19:23:56.199Z,85.12
2022-11-20T19:26:23.559Z,85.22
2022-11-20T19:28:50.550Z,85.22
2022-11-20T19:31:24.125Z,85.31
2022-11-20T19:33:55.858Z,85.41
2022-11-20T19:36:24.389Z,85.58
2022-11-20T19:38:54.428Z,85.45
2022-11-20T19:41:29.441Z,85.48
2022-11-20T19:44:02.384Z,85.42
2022-11-20T19:46:32.452Z,85.56
2022-11-20T19:48:59.393Z,85.41
2022-11-20T19:51:26.944Z,85.24
2022-11-20T19:53:55.413Z,85.40
2022-11-20T19:56:23.293Z,85.55
2022-11-20T19:58:53.141Z,85.55
2022-11-20T20:01:21.227Z,85.19
2022-11-20T20:03:48.324Z,84.93
2022-11-20T20:06:21.007Z,84.57
2022-11-20T20:08:50.925Z,84.68
2022-11-20T20:11:18.839Z,84.53
2022-11-20T20:13:48.491Z,84.49
2022-11-20T20:16:16.492Z,84.15
2022-11-20T20:18:43.709Z,84.20
2022-11-20T20:21:11.563Z,83.88
2022-11-20T20:23:38.902Z,83.91
2022-11-20T20:26:06.316Z,83.78
2022-11-20T20:28:33.419Z,83.85
2022-11-20T20:31:10.294Z,83.93
2022-11-20T20:33:40.871Z,83.74
2022-11-20T20:36:08.433Z,83.71
2022-11-20T20:38:37.670Z,83.18
2022-11-20T20:41:04.562Z,83.19
2022-11-20T20:43:31.742Z,83.12
2022-11-20T20:45:58.609Z,83.48
2022-11-20T20:48:28.405Z,83.38
2022-11-20T20:50:58.305Z,83.44
2022-11-20T20:53:25.298Z,83.33
2022-11-20T20:55:55.964Z,83.37
2022-11-20T20:58:23.075Z,83.25
2022-11-20T21:00:50.885Z,83.48
2022-11-20T21:03:18.582Z,83.46
2022-11-20T21:05:45.835Z,83.30
2022-11-20T21:08:21.768Z,83.36
2022-11-20T21:10:49.061Z,83.33
2022-11-20T21:13:16.052Z,83.21
2022-11-20T21:15:43.366Z,83.07
2022-11-20T21:18:10.210Z,83.21
2022-11-20T21:20:58.153Z,83.56
2022-11-20T21:23:25.327Z,83.29
2022-11-20T21:25:52.450Z,83.35
2022-11-20T21:28:19.316Z,83.88
2022-11-20T21:30:46.842Z,83.82
2022-11-20T21:33:13.847Z,83.98
2022-11-20T21:35:41.597Z,83.97
2022-11-20T21:38:08.762Z,83.81
2022-11-20T21:40:35.607Z,84.08
2022-11-20T21:43:02.474Z,83.94
2022-11-20T21:45:29.339Z,83.95
2022-11-20T21:47:56.050Z,84.06
2022-11-20T21:50:22.858Z,83.99
2022-11-20T21:52:49.639Z,84.04
2022-11-20T21:55:16.379Z,84.13
2022-11-20T21:57:43.224Z,84.15
2022-11-20T22:00:11.640Z,84.04
2022-11-20T22:02:39.381Z,84.32
2022-11-20T22:05:09.566Z,84.35
2022-11-20T22:07:36.573Z,84.68
2022-11-20T22:10:03.639Z,84.81
2022-11-20T22:12:30.603Z,84.71
2022-11-20T22:14:57.532Z,84.88
2022-11-20T22:17:44.285Z,84.86
2022-11-20T22:20:11.731Z,85.03
2022-11-20T22:22:39.973Z,85.04
2022-11-20T22:25:07.042Z,85.34
2022-11-20T22:27:33.875Z,85.24
2022-11-20T22:30:00.821Z,85.48
2022-11-20T22:32:27.678Z,85.56
2022-11-20T22:34:54.450Z,85.63
2022-11-20T22:37:21.318Z,85.74
2022-11-20T22:39:48.129Z,85.77
2022-11-20T22:42:14.929Z,85.81
2022-11-20T22:44:41.832Z,85.98
2022-11-20T22:47:11.772Z,85.83
2022-11-20T22:49:38.607Z,85.75
2022-11-20T22:52:05.522Z,85.89
2022-11-20T22:54:32.309Z,85.99
2022-11-20T22:56:59.181Z,85.98
2022-11-20T22:59:26.059Z,86.00
2022-11-20T23:01:52.930Z,86.06
2022-11-20T23:04:19.804Z,86.43
2022-11-20T23:06:46.812Z,86.28
2022-11-20T23:09:13.789Z,86.20
2022-11-20T23:11:40.699Z,86.24
2022-11-20T23:14:08.655Z,86.20
2022-11-20T23:16:35.827Z,86.11
2022-11-20T23:19:04.200Z,86.09
2022-11-20T23:21:31.242Z,86.21
2022-11-20T23:23:58.344Z,86.16
2022-11-20T23:26:28.365Z,85.88
2022-11-20T23:28:56.548Z,85.99
2022-11-20T23:31:23.622Z,85.89
2022-11-20T23:33:50.714Z,85.81
2022-11-20T23:36:17.687Z,85.68
2022-11-20T23:38:44.556Z,85.59
2022-11-20T23:41:11.934Z,85.63
2022-11-20T23:43:39.025Z,85.63
2022-11-20T23:46:06.355Z,85.53
2022-11-20T23:48:36.802Z,85.61
2022-11-20T23:51:04.307Z,85.67
2022-11-20T23:53:31.790Z,85.55
2022-11-20T23:55:59.808Z,85.58
2022-11-20T23:58:29.803Z,85.54
